Latest Weather Observations for Viewbank

IDV60801

Issued at 2:32 pm EST Thursday 28 July 2016 (issued every 30 minutes, with the page automatically refreshed every 10 minutes)

About weather observations | Map of weather stations | Latest weather observations for VIC | Other Formats
Station Details ID: 086068 Name: VIEWBANK Lat: -37.74 Lon: 145.10 Height: 66.1 m
Data from the previous 72 hours. | See also: Recent months at Viewbank
Date/Time
EST
Temp
°C
App
Temp
°C
Dew
Point
°C
Rel
Hum
%
Delta-T
°C
Wind Press
QNH
hPa
Press
MSL
hPa
Rain since
9am
mm
Dir  Spd
km/h
Gust
km/h
Spd
kts
Gust
kts
28/02:30pm 12.7 9.3 7.6 71 2.5 N 15 28 8 15 1022.5 1022.6 0.0
28/02:00pm 12.5 9.0 7.2 70 2.6 N 15 24 8 13 1022.7 1022.8 0.0
28/01:30pm 12.7 9.2 7.2 69 2.7 NNW 15 22 8 12 1023.0 1023.1 0.0
28/01:00pm 12.4 8.4 6.7 68 2.7 NNW 17 30 9 16 1023.3 1023.4 0.0
28/12:30pm 12.6 8.6 6.6 67 2.9 NNW 17 22 9 12 1023.3 1023.4 0.0
28/12:00pm 12.4 8.1 6.9 69 2.6 N 19 32 10 17 1023.5 1023.6 0.0
28/11:30am 12.5 8.0 6.8 68 2.7 NNW 20 32 11 17 1023.8 1023.9 0.0
28/11:00am 11.7 7.3 6.6 71 2.4 N 19 30 10 16 1024.2 1024.3 0.0
28/10:30am 11.3 7.2 6.4 72 2.3 N 17 24 9 13 1024.3 1024.4 0.0
28/10:00am 11.0 6.4 6.6 74 2.1 NNW 20 32 11 17 1024.3 1024.4 0.0
28/09:30am 10.5 6.4 6.3 75 2.0 N 17 26 9 14 1024.1 1024.2 0.0
28/09:00am 9.6 6.6 6.0 78 1.7 N 11 17 6 9 1024.1 1024.2 0.0
28/08:30am 8.4 5.8 6.0 85 1.1 N 9 15 5 8 1024.0 1024.1 0.0
28/08:00am 7.0 4.8 5.5 90 0.7 NNE 6 11 3 6 1023.9 1024.0 0.0
28/07:30am 7.4 3.8 5.2 86 1.0 N 13 20 7 11 1023.6 1023.7 0.0
28/07:00am 7.0 4.2 5.3 89 0.8 N 9 13 5 7 1023.4 1023.5 0.0
28/06:30am 7.4 4.3 5.4 87 0.9 NNE 11 17 6 9 1023.1 1023.2 0.0
28/06:00am 7.6 4.0 5.2 85 1.1 N 13 19 7 10 1022.9 1023.0 0.0
28/05:30am 7.7 4.1 5.0 83 1.2 N 13 19 7 10 1022.7 1022.8 0.0
28/05:00am 7.8 4.2 5.1 83 1.2 NNW 13 20 7 11 1022.6 1022.7 0.0
28/04:30am 7.1 4.3 5.3 88 0.8 N 9 15 5 8 1022.3 1022.4 0.0
28/04:00am 6.4 4.2 5.2 92 0.5 NNE 6 9 3 5 1022.3 1022.4 0.0
28/03:30am 7.0 4.1 4.8 86 1.0 NNE 9 15 5 8 1022.2 1022.3 0.0
28/03:00am 7.1 4.6 4.9 86 1.0 NNE 7 9 4 5 1022.4 1022.5 0.0
28/02:30am 6.9 4.6 4.7 86 1.0 NNE 6 9 3 5 1022.4 1022.5 0.0
28/02:00am 7.5 4.2 4.8 83 1.2 N 11 17 6 9 1022.5 1022.6 0.0
28/01:30am 7.6 4.7 4.6 81 1.3 N 9 13 5 7 1022.4 1022.5 0.0
28/01:00am 7.8 4.1 4.4 79 1.5 N 13 19 7 10 1022.3 1022.4 0.0
28/12:30am 7.9 5.0 4.5 79 1.5 N 9 17 5 9 1022.4 1022.5 0.0
28/12:00am 8.1 4.8 4.3 77 1.7 N 11 17 6 9 1022.4 1022.5 0.0
 
Date/Time
EST
Temp
°C
App
Temp
°C
Dew
Point
°C
Rel
Hum
%
Delta-T
°C
Wind Press
QNH
hPa
Press
MSL
hPa
Rain since
9am
mm
Dir  Spd
km/h
Gust
km/h
Spd
kts
Gust
kts
27/11:30pm 8.1 4.8 4.5 78 1.6 N 11 17 6 9 1022.4 1022.5 0.0
27/11:00pm 8.4 5.5 4.6 77 1.7 NNW 9 13 5 7 1022.3 1022.4 0.0
27/10:30pm 8.7 5.8 4.5 75 1.9 NNW 9 15 5 8 1022.0 1022.1 0.0
27/10:00pm 9.1 5.8 4.7 74 2.0 NW 11 17 6 9 1022.0 1022.1 0.0
27/09:30pm 9.4 6.5 4.8 73 2.1 NW 9 17 5 9 1022.1 1022.2 0.0
27/09:00pm 9.8 6.9 4.8 71 2.2 WNW 9 15 5 8 1022.4 1022.5 0.0
27/08:30pm 10.0 6.7 4.6 69 2.4 WNW 11 22 6 12 1022.3 1022.4 0.0
27/08:00pm 10.0 7.1 4.4 68 2.5 WNW 9 19 5 10 1022.1 1022.2 0.0
27/07:30pm 10.1 6.8 4.3 67 2.6 W 11 17 6 9 1021.8 1021.9 0.0
27/07:00pm 9.9 7.0 4.5 69 2.4 WNW 9 17 5 9 1021.1 1021.2 0.0
27/06:30pm 9.8 6.8 4.2 68 2.5 WNW 9 15 5 8 1020.4 1020.5 0.0
27/06:00pm 9.6 6.1 3.6 66 2.6 W 11 19 6 10 1019.9 1020.0 0.0
27/05:30pm 10.0 5.5 4.0 66 2.7 W 17 28 9 15 1019.6 1019.7 0.0
27/05:00pm 10.1 5.0 4.3 67 2.6 W 20 35 11 19 1019.4 1019.5 0.0
27/04:30pm 10.8 5.8 3.8 62 3.1 WSW 19 32 10 17 1018.9 1019.0 0.0
27/04:00pm 10.9 4.9 3.5 60 3.3 W 24 41 13 22 1018.6 1018.7 0.0
27/03:30pm 11.1 4.6 2.7 56 3.6 W 26 39 14 21 1018.1 1018.2 0.0
27/03:00pm 11.7 6.4 3.0 55 3.8 W 20 35 11 19 1017.3 1017.4 0.0
27/02:30pm 11.4 6.0 2.7 55 3.8 W 20 32 11 17 1016.9 1017.0 0.0
27/02:00pm 11.2 5.7 4.0 61 3.2 W 22 37 12 20 1016.8 1016.9 0.0
27/01:30pm 11.1 5.9 3.6 60 3.3 WSW 20 33 11 18 1016.3 1016.4 0.0
27/01:00pm 11.0 5.9 4.0 62 3.1 W 20 33 11 18 1016.1 1016.2 0.0
27/12:30pm 10.9 7.0 5.4 69 2.5 WSW 15 24 8 13 1016.0 1016.1 0.0
27/12:00pm 10.5 7.3 5.3 70 2.4 SW 11 19 6 10 1015.8 1015.9 0.0
27/11:30am 10.3 6.0 5.3 71 2.3 SW 17 28 9 15 1015.5 1015.6 0.0
27/11:00am 10.6 6.5 6.4 75 2.0 WSW 17 28 9 15 1015.5 1015.6 0.0
27/10:30am 10.3 6.1 7.5 83 1.3 WSW 19 30 10 16 1015.0 1015.1 0.0
27/10:00am 9.9 6.4 8.8 93 0.5 WSW 17 32 9 17 1014.5 1014.6 0.0
27/09:30am 9.6 7.0 9.5 99 0.0 WSW 13 24 7 13 1013.6 1013.7 0.0
27/09:00am 9.3 6.3 9.3 100 0.0 WSW 15 28 8 15 1012.7 1012.7 0.6
27/08:30am 9.2 5.4 9.1 99 0.0 W 19 30 10 16 1011.8 1011.9 0.4
27/08:00am 9.6 6.6 7.9 89 0.8 W 13 19 7 10 1011.0 1011.1 0.2
27/07:30am 9.4 7.1 7.3 87 1.0 WNW 9 17 5 9 1010.3 1010.4 0.2
27/07:00am 9.1 6.7 7.2 88 0.9 NW 9 17 5 9 1009.6 1009.7 0.0
27/06:30am 8.8 6.2 7.6 92 0.6 N 11 17 6 9 1008.9 1009.0 0.0
27/06:00am 8.5 5.9 7.7 95 0.4 NW 11 17 6 9 1008.5 1008.6 0.0
27/05:30am 9.1 6.1 6.2 82 1.3 NNW 11 19 6 10 1007.8 1007.9 0.0
27/05:00am 9.1 6.1 6.0 81 1.4 NNW 11 20 6 11 1007.3 1007.4 0.0
27/04:30am 8.8 4.7 6.3 84 1.2 NNE 17 22 9 12 1006.8 1006.9 0.0
27/04:00am 8.6 4.5 6.2 85 1.1 N 17 32 9 17 1006.3 1006.4 0.0
27/03:30am 8.4 4.7 6.2 86 1.0 NNE 15 24 8 13 1006.1 1006.2 0.0
27/03:00am 8.3 4.5 5.9 85 1.1 NNE 15 28 8 15 1006.2 1006.3 0.0
27/02:30am 8.4 4.6 5.9 84 1.1 NNE 15 28 8 15 1006.0 1006.1 0.0
27/02:00am 8.5 4.7 5.8 83 1.2 NNE 15 28 8 15 1005.7 1005.8 0.0
27/01:30am 8.6 4.4 5.5 81 1.4 NNE 17 30 9 16 1005.9 1006.0 0.0
27/01:00am 8.9 4.0 5.3 78 1.6 NNE 20 35 11 19 1006.1 1006.2 0.0
27/12:30am 9.2 3.4 4.6 73 2.0 NNE 24 39 13 21 1006.0 1006.1 0.0
27/12:00am 9.6 4.1 4.2 69 2.4 NNE 22 35 12 19 1006.2 1006.3 0.0
 
Date/Time
EST
Temp
°C
App
Temp
°C
Dew
Point
°C
Rel
Hum
%
Delta-T
°C
Wind Press
QNH
hPa
Press
MSL
hPa
Rain since
9am
mm
Dir  Spd
km/h
Gust
km/h
Spd
kts
Gust
kts
26/11:30pm 9.5 4.0 4.1 69 2.4 NNE 22 50 12 27 1006.1 1006.2 0.0
26/11:00pm 9.5 4.0 4.1 69 2.4 NE 22 46 12 25 1006.3 1006.4 0.0
26/10:36pm 9.9 3.2 3.9 66 2.6 NNE 28 46 15 25 1006.6 1006.7 0.0
26/10:30pm 9.9 4.8 4.1 67 2.6 NNE 20 46 11 25 1006.9 1007.0 0.0
26/10:00pm 9.4 4.0 4.4 71 2.2 NNE 22 39 12 21 1007.2 1007.3 0.0
26/09:30pm 9.3 4.8 4.3 71 2.2 NNE 17 28 9 15 1007.3 1007.4 0.0
26/09:00pm 9.2 4.2 4.4 72 2.1 NNE 20 50 11 27 1007.6 1007.7 0.0
26/08:30pm 9.2 3.8 4.4 72 2.1 NNE 22 39 12 21 1007.7 1007.8 0.0
26/08:00pm 9.0 4.3 5.0 76 1.8 NNE 19 28 10 15 1007.9 1008.0 0.0
26/07:30pm 8.6 4.2 5.0 78 1.6 NNE 17 28 9 15 1008.0 1008.1 0.0
26/07:00pm 8.6 4.0 5.4 80 1.4 NNE 19 30 10 16 1008.2 1008.3 0.0
26/06:30pm 8.8 4.5 5.2 78 1.6 NNE 17 28 9 15 1008.7 1008.8 0.0
26/06:00pm 8.8 4.3 4.4 74 1.9 NNE 17 28 9 15 1008.9 1009.0 0.0
26/05:30pm 8.9 4.4 4.1 72 2.1 NNE 17 32 9 17 1008.7 1008.8 0.0
26/05:00pm 9.1 4.6 4.1 71 2.2 NNE 17 32 9 17 1009.0 1009.1 0.0
26/04:30pm 9.3 4.4 4.3 71 2.2 NNE 19 43 10 23 1009.0 1009.1 0.0
26/04:00pm 9.2 4.4 4.4 72 2.1 NNE 19 33 10 18 1009.2 1009.3 0.0
26/03:30pm 9.1 4.1 3.7 69 2.4 NNE 19 33 10 18 1009.7 1009.8 0.0
26/03:00pm 9.3 5.1 3.7 68 2.4 NNE 15 32 8 17 1010.2 1010.3 0.0
26/02:30pm 9.2 4.1 3.2 66 2.6 N 19 35 10 19 1010.8 1010.9 0.0
26/02:00pm 9.2 5.3 3.6 68 2.4 NNE 13 26 7 14 1011.1 1011.2 0.0
26/01:30pm 8.7 3.5 3.7 71 2.2 NNE 20 33 11 18 1011.3 1011.4 0.0
26/01:00pm 8.3 2.3 3.4 71 2.1 N 24 39 13 21 1011.9 1012.0 0.0
26/12:30pm 8.1 2.5 3.4 72 2.0 N 22 39 12 21 1012.8 1012.8 0.0
26/12:00pm 8.2 3.0 3.5 72 2.0 NNE 20 35 11 19 1013.0 1013.0 0.0
26/11:30am 8.2 1.8 3.1 70 2.2 N 26 39 14 21 1013.1 1013.1 0.0
26/11:00am 8.1 2.1 3.6 73 1.9 N 24 39 13 21 1013.2 1013.2 0.0
26/10:30am 7.6 2.4 3.3 74 1.8 NNE 20 33 11 18 1013.2 1013.2 0.0
26/10:00am 7.6 1.9 3.1 73 1.9 N 22 37 12 20 1013.3 1013.3 0.0
26/09:30am 7.3 2.6 3.2 75 1.7 N 17 32 9 17 1013.3 1013.3 0.0
26/09:00am 7.3 2.2 2.8 73 1.9 N 19 32 10 17 1013.1 1013.1 5.0
26/08:30am 6.8 1.6 2.5 74 1.8 N 19 30 10 16 1013.0 1013.0 5.0
26/08:00am 6.3 1.0 2.8 78 1.5 N 20 32 11 17 1012.7 1012.7 5.0
26/07:30am 6.4 1.5 2.3 75 1.7 N 17 28 9 15 1012.5 1012.5 5.0
26/07:00am 6.8 1.5 2.1 72 1.9 NNW 19 35 10 19 1011.9 1012.0 5.0
26/06:30am 6.5 2.0 2.0 73 1.8 N 15 24 8 13 1011.7 1011.8 5.0
26/06:00am 6.4 1.8 1.7 72 1.9 N 15 24 8 13 1011.2 1011.3 5.0
26/05:30am 6.4 1.5 1.7 72 1.9 N 17 26 9 14 1010.9 1011.0 5.0
26/05:00am 6.6 1.3 1.7 71 2.0 N 19 30 10 16 1010.6 1010.7 5.0
26/04:30am 6.3 1.7 1.6 72 1.9 N 15 24 8 13 1010.2 1010.3 5.0
26/04:00am 6.4 2.2 1.7 72 1.9 N 13 20 7 11 1010.2 1010.3 5.0
26/03:30am 6.4 1.8 1.5 71 2.0 NNW 15 24 8 13 1010.1 1010.2 5.0
26/03:00am 6.6 1.6 1.3 69 2.1 NNW 17 26 9 14 1010.0 1010.1 5.0
26/02:30am 6.8 1.8 1.5 69 2.1 NNW 17 26 9 14 1009.9 1010.0 5.0
26/02:00am 7.3 2.7 1.4 66 2.4 NNW 15 26 8 14 1009.7 1009.8 5.0
26/01:30am 7.4 3.2 1.7 67 2.3 NNW 13 22 7 12 1009.4 1009.5 5.0
26/01:00am 7.2 2.2 1.1 65 2.5 NNW 17 30 9 16 1009.0 1009.1 5.0
26/12:30am 7.7 2.7 1.1 63 2.7 NW 17 24 9 13 1008.9 1009.0 5.0
26/12:00am 7.6 3.4 1.5 65 2.5 WNW 13 30 7 16 1008.8 1008.9 5.0
 
Date/Time
EST
Temp
°C
App
Temp
°C
Dew
Point
°C
Rel
Hum
%
Delta-T
°C
Wind Press
QNH
hPa
Press
MSL
hPa
Rain since
9am
mm
Dir  Spd
km/h
Gust
km/h
Spd
kts
Gust
kts
25/11:30pm 8.0 2.6 1.4 63 2.7 WNW 19 32 10 17 1008.6 1008.7 5.0
25/11:00pm 8.0 2.5 1.8 65 2.6 WNW 20 37 11 20 1008.2 1008.3 5.0
25/10:30pm 7.3 2.1 2.6 72 2.0 WNW 19 43 10 23 1007.7 1007.8 5.0
25/10:00pm 7.2 2.1 3.1 75 1.7 NW 19 35 10 19 1007.5 1007.6 5.0
25/09:30pm 7.8 2.2 3.3 73 1.9 NW 22 35 12 19 1007.3 1007.4 5.0
25/09:11pm 8.7 2.2 4.5 75 1.9 WNW 28 56 15 30 1006.9 1007.0 5.0
25/09:00pm 8.4 2.5 4.0 74 1.9 W 24 39 13 21 1007.3 1007.4 5.0
25/08:30pm 10.0 6.9 7.4 84 1.2 WNW 13 22 7 12 1006.3 1006.4 4.8
25/08:00pm 9.7 7.6 9.6 99 0.1 NW 11 22 6 12 1005.7 1005.8 4.8
25/07:30pm 9.7 7.2 9.6 99 0.1 NW 13 22 7 12 1005.6 1005.7 4.8
25/07:00pm 9.9 6.3 9.8 99 0.1 WNW 19 48 10 26 1005.6 1005.7 3.4
25/06:33pm 11.1 5.1 7.2 77 1.9 NNW 28 48 15 26 1004.3 1004.4 0.0
25/06:30pm 11.1 5.1 7.0 76 2.0 NNW 28 48 15 26 1004.1 1004.2 0.0
25/06:00pm 11.3 4.2 6.6 73 2.2 N 33 65 18 35 1003.2 1003.3 0.0
25/05:30pm 11.6 4.4 5.9 68 2.7 N 33 59 18 32 1003.0 1003.1 0.0
25/05:05pm 11.7 5.4 5.6 66 2.8 N 28 48 15 26 1003.4 1003.5 0.0
25/05:00pm 11.6 5.6 5.5 66 2.8 N 26 44 14 24 1003.6 1003.7 0.0
25/04:30pm 11.7 5.7 5.1 64 3.0 NNE 26 46 14 25 1003.8 1003.9 0.0
25/04:00pm 12.1 5.2 4.8 61 3.4 N 30 52 16 28 1004.1 1004.2 0.0
25/03:44pm 12.2 5.6 4.2 58 3.6 N 28 46 15 25 1004.2 1004.3 0.0
25/03:30pm 12.3 6.6 4.8 60 3.4 N 24 43 13 23 1004.6 1004.7 0.0
25/03:05pm 12.5 5.9 4.2 57 3.8 N 28 54 15 29 1005.2 1005.3 0.0
25/03:00pm 12.7 6.6 4.9 59 3.6 N 26 43 14 23 1005.2 1005.3 0.0

Other Formats:

Comma delimited format used in spreadsheet applications
http://www.bom.gov.au/fwo/IDV60801/IDV60801.95874.axf

JavaScript Object Notation format (JSON) in row-major order
http://www.bom.gov.au/fwo/IDV60801/IDV60801.95874.json